Time;durP1;ratioP1;P1;durP2;ratioP2;P2;SDS_P1;SDS_P2;PMS_P1;PMS_P2;Temp;Humidity;BMP_temperature;BMP_pressure;BME280_temperature;BME280_humidity;BME280_pressure;Samples;Min_cycle;Max_cycle;Signal;HPM_P1;HPM_P2
2023/12/23 00:00:29;;;;;;;;;;;;;;;3.48;78.31;98629.47;5465093;32;34540;-70
2023/12/23 00:03:32;;;;;;;;;;;;;;;2.84;78.80;98631.00;5460534;32;34948;-71
2023/12/23 00:06:34;;;;;;;;;;;;;;;3.00;81.17;98629.53;5461035;32;34254;-69
2023/12/23 00:09:36;;;;;;;;;;;;;;;4.04;77.09;98625.53;5466129;32;34456;-72
2023/12/23 00:12:38;;;;;;;;;;;;;;;4.35;74.28;98635.50;5446116;32;35043;-68
2023/12/23 00:15:40;;;;;;;;;;;;;;;3.62;77.55;98647.13;5451847;32;35051;-69
2023/12/23 00:18:43;;;;;;;;;;;;;;;3.25;79.14;98629.47;5460631;32;34419;-73
2023/12/23 00:21:45;;;;;;;;;;;;;;;4.07;76.84;98622.81;5452275;32;36050;-72
2023/12/23 00:24:47;;;;;;;;;;;;;;;4.45;75.75;98621.22;5461166;32;35012;-74
2023/12/23 00:27:49;;;;;;;;;;;;;;;4.38;74.78;98605.91;5460737;32;34565;-70
2023/12/23 00:30:52;;;;;;;;;;;;;;;4.64;73.92;98608.28;5465410;32;35500;-69
2023/12/23 00:33:54;;;;;;;;;;;;;;;5.05;71.95;98598.63;5460582;32;34777;-71
2023/12/23 00:36:57;;;;;;;;;;;;;;;4.43;71.41;98597.00;5464907;32;34652;-71
2023/12/23 00:39:59;;;;;;;;;;;;;;;4.96;71.51;98609.47;5460300;32;34983;-69
2023/12/23 00:43:02;;;;;;;;;;;;;;;4.29;74.15;98584.59;5464847;32;34595;-71
2023/12/23 00:46:04;;;;;;;;;;;;;;;4.56;72.58;98560.91;5461269;32;35016;-71
2023/12/23 00:49:06;;;;;;;;;;;;;;;4.07;74.19;98556.06;5445197;32;34157;-69
2023/12/23 00:52:08;;;;;;;;;;;;;;;4.89;72.05;98563.78;5461787;32;35692;-73
2023/12/23 00:55:10;;;;;;;;;;;;;;;5.11;70.54;98571.47;5438564;32;34787;-69
2023/12/23 00:58:12;;;;;;;;;;;;;;;4.86;72.00;98584.75;5460913;32;34752;-72
2023/12/23 01:01:14;;;;;;;;;;;;;;;5.73;67.18;98591.13;5442406;32;34778;-69
2023/12/23 01:04:17;;;;;;;;;;;;;;;5.13;69.39;98603.50;5463842;32;34844;-69
2023/12/23 01:07:19;;;;;;;;;;;;;;;4.71;71.04;98596.69;5461266;32;35320;-70
2023/12/23 01:10:24;;;;;;;;;;;;;;;5.18;69.52;98591.09;5439442;32;35348;-69
2023/12/23 01:13:26;;;;;;;;;;;;;;;5.04;70.36;98629.97;5463880;32;34778;-70
2023/12/23 01:16:28;;;;;;;;;;;;;;;5.76;68.31;98657.94;5462672;32;34877;-71
2023/12/23 01:19:30;;;;;;;;;;;;;;;5.57;68.13;98676.19;5467837;32;34734;-73
2023/12/23 01:22:32;;;;;;;;;;;;;;;3.59;74.40;98673.19;5462504;32;35367;-71
2023/12/23 01:25:35;;;;;;;;;;;;;;;3.67;76.88;98649.53;5465516;32;34562;-69
2023/12/23 01:28:37;;;;;;;;;;;;;;;4.05;76.26;98653.22;5464217;32;34985;-69
2023/12/23 01:31:39;;;;;;;;;;;;;;;4.27;75.21;98666.22;5447909;32;34949;-69
2023/12/23 01:34:42;;;;;;;;;;;;;;;4.37;74.20;98682.25;5450677;32;34370;-70
2023/12/23 01:37:45;;;;;;;;;;;;;;;4.93;70.54;98671.22;5461884;32;35665;-71
2023/12/23 01:40:47;;;;;;;;;;;;;;;4.58;72.65;98671.00;5453085;32;34553;-72
2023/12/23 01:43:49;;;;;;;;;;;;;;;4.91;69.62;98654.84;5462232;32;34879;-70
2023/12/23 01:46:52;;;;;;;;;;;;;;;4.28;71.86;98650.53;5449072;32;34506;-69
2023/12/23 01:49:56;;;;;;;;;;;;;;;4.98;71.19;98635.44;5466454;32;34553;-73
2023/12/23 01:52:58;;;;;;;;;;;;;;;5.57;67.41;98624.06;5438586;32;35701;-70
2023/12/23 01:56:00;;;;;;;;;;;;;;;4.71;69.84;98633.12;5466150;32;34654;-71
2023/12/23 01:59:03;;;;;;;;;;;;;;;4.81;69.73;98629.19;5434584;32;35162;-69
2023/12/23 02:02:05;;;;;;;;;;;;;;;5.24;68.93;98631.66;5452495;32;34460;-69
2023/12/23 02:05:08;;;;;;;;;;;;;;;4.67;69.71;98639.38;5448152;32;35308;-72
2023/12/23 02:08:10;;;;;;;;;;;;;;;4.58;70.49;98650.19;5443000;32;34279;-72
2023/12/23 02:11:13;;;;;;;;;;;;;;;4.25;72.77;98692.28;5456839;32;34651;-73
2023/12/23 02:14:17;;;;;;;;;;;;;;;3.42;76.41;98709.38;5462609;32;35509;-73
2023/12/23 02:17:19;;;;;;;;;;;;;;;3.02;79.38;98722.91;5452456;32;35647;-73
2023/12/23 02:20:21;;;;;;;;;;;;;;;4.04;75.61;98706.97;5462163;32;34264;-70
2023/12/23 02:23:24;;;;;;;;;;;;;;;3.96;75.73;98702.97;5465921;32;34213;-73
2023/12/23 02:26:26;;;;;;;;;;;;;;;4.31;72.76;98696.38;5434495;32;35068;-72
2023/12/23 02:29:28;;;;;;;;;;;;;;;3.74;75.47;98693.41;5416070;32;837678;-72
2023/12/23 02:32:30;;;;;;;;;;;;;;;4.06;74.99;98689.56;5450347;32;33965;-73
2023/12/23 02:35:33;;;;;;;;;;;;;;;4.51;73.56;98685.16;5461868;32;34895;-70
2023/12/23 02:38:35;;;;;;;;;;;;;;;4.47;71.74;98684.44;5446566;32;34798;-73
2023/12/23 02:41:37;;;;;;;;;;;;;;;4.39;71.46;98706.47;5461419;32;35896;-72
2023/12/23 02:44:39;;;;;;;;;;;;;;;3.15;77.08;98711.19;5466831;32;34162;-73
2023/12/23 02:47:41;;;;;;;;;;;;;;;3.17;78.23;98710.25;5461399;32;34766;-71
2023/12/23 02:50:44;;;;;;;;;;;;;;;4.02;75.42;98687.12;5458702;32;34284;-72
2023/12/23 02:53:46;;;;;;;;;;;;;;;3.45;75.58;98678.06;5450063;32;35249;-70
2023/12/23 02:56:48;;;;;;;;;;;;;;;3.32;76.77;98698.44;5460722;32;34702;-69
2023/12/23 02:59:50;;;;;;;;;;;;;;;3.55;75.14;98723.59;5466689;32;35312;-69
2023/12/23 03:02:52;;;;;;;;;;;;;;;2.93;76.87;98721.50;5461330;32;34918;-71
2023/12/23 03:05:54;;;;;;;;;;;;;;;3.23;78.26;98740.34;5466630;32;35348;-72
2023/12/23 03:08:57;;;;;;;;;;;;;;;3.56;75.83;98742.63;5445820;32;34806;-72
2023/12/23 03:11:59;;;;;;;;;;;;;;;3.75;74.73;98741.03;5461106;32;34963;-72
2023/12/23 03:15:02;;;;;;;;;;;;;;;3.96;75.87;98748.00;5466723;32;34870;-70
2023/12/23 03:18:04;;;;;;;;;;;;;;;3.21;76.52;98749.91;5460831;32;35426;-73
2023/12/23 03:21:06;;;;;;;;;;;;;;;3.35;77.58;98745.09;5465575;32;36685;-71
2023/12/23 03:24:09;;;;;;;;;;;;;;;3.16;76.98;98760.47;5461203;32;34815;-70
2023/12/23 03:27:11;;;;;;;;;;;;;;;3.54;76.58;98753.03;5465578;32;34881;-69
2023/12/23 03:30:13;;;;;;;;;;;;;;;3.39;76.49;98779.59;5461600;32;35308;-72
2023/12/23 03:33:15;;;;;;;;;;;;;;;2.79;78.42;98812.78;5460665;32;35039;-69
2023/12/23 03:36:18;;;;;;;;;;;;;;;3.46;76.21;98823.47;5465584;32;33772;-72
2023/12/23 03:39:20;;;;;;;;;;;;;;;3.70;74.62;98821.75;5461472;32;35344;-70
2023/12/23 03:42:22;;;;;;;;;;;;;;;4.22;73.45;98817.22;5465707;32;35035;-70
2023/12/23 03:45:25;;;;;;;;;;;;;;;3.24;76.14;98825.13;5443435;32;34947;-69
2023/12/23 03:48:27;;;;;;;;;;;;;;;3.57;77.00;98812.69;5464945;32;35396;-68
2023/12/23 03:51:29;;;;;;;;;;;;;;;4.13;73.75;98782.94;5467086;32;34925;-71
2023/12/23 03:54:31;;;;;;;;;;;;;;;3.82;74.34;98770.25;5459878;32;34314;-73
2023/12/23 03:57:33;;;;;;;;;;;;;;;4.17;72.79;98756.72;5465391;32;34734;-73
2023/12/23 04:00:36;;;;;;;;;;;;;;;4.37;70.71;98768.94;5461734;32;35335;-69
2023/12/23 04:03:38;;;;;;;;;;;;;;;3.52;73.63;98767.84;5447300;32;35125;-67
2023/12/23 04:06:40;;;;;;;;;;;;;;;3.25;74.65;98786.12;5460818;32;36432;-70
2023/12/23 04:09:42;;;;;;;;;;;;;;;3.23;75.23;98782.72;5444348;32;37313;-72
2023/12/23 04:12:45;;;;;;;;;;;;;;;3.11;76.42;98762.38;5444463;32;35614;-72
2023/12/23 04:15:47;;;;;;;;;;;;;;;4.25;71.73;98754.69;5461431;32;34380;-69
2023/12/23 04:18:49;;;;;;;;;;;;;;;3.73;73.19;98751.47;5466065;32;34736;-71
2023/12/23 04:21:51;;;;;;;;;;;;;;;4.59;71.09;98737.72;5460903;32;34440;-72
2023/12/23 04:24:53;;;;;;;;;;;;;;;3.60;72.92;98733.78;5445252;32;35392;-71
2023/12/23 04:27:56;;;;;;;;;;;;;;;3.36;75.06;98717.38;5459299;32;34584;-70
2023/12/23 04:30:58;;;;;;;;;;;;;;;3.83;74.89;98712.16;5448415;32;35039;-70
2023/12/23 04:34:00;;;;;;;;;;;;;;;3.36;74.79;98713.03;5462091;32;34878;-69
2023/12/23 04:37:03;;;;;;;;;;;;;;;3.47;73.68;98716.06;5445680;32;34853;-69
2023/12/23 04:40:05;;;;;;;;;;;;;;;2.93;74.71;98724.09;5465832;32;35378;-69
2023/12/23 04:43:07;;;;;;;;;;;;;;;3.87;72.70;98745.78;5459940;32;35105;-70
2023/12/23 04:46:09;;;;;;;;;;;;;;;3.53;73.71;98748.75;5449610;32;35204;-68
2023/12/23 04:49:11;;;;;;;;;;;;;;;3.57;73.37;98765.94;5444698;32;34899;-70
2023/12/23 04:52:14;;;;;;;;;;;;;;;3.10;75.23;98755.50;5445084;32;34920;-71
2023/12/23 04:55:16;;;;;;;;;;;;;;;3.52;73.58;98781.69;5462013;32;34731;-72
2023/12/23 04:58:18;;;;;;;;;;;;;;;3.52;73.90;98788.63;5460300;32;34906;-69
2023/12/23 05:01:20;;;;;;;;;;;;;;;3.16;74.85;98760.47;5464797;32;34575;-70
2023/12/23 05:04:23;;;;;;;;;;;;;;;3.31;73.92;98804.97;5460811;32;34349;-69
2023/12/23 05:07:25;;;;;;;;;;;;;;;3.18;75.90;98784.62;5448077;32;35527;-68
2023/12/23 05:10:27;;;;;;;;;;;;;;;3.65;75.01;98809.81;5460886;32;34725;-73
2023/12/23 05:13:29;;;;;;;;;;;;;;;3.59;73.54;98816.09;5462597;32;34792;-69
2023/12/23 05:16:31;;;;;;;;;;;;;;;3.23;75.59;98813.88;5462519;32;34419;-72
2023/12/23 05:19:34;;;;;;;;;;;;;;;3.24;75.01;98841.53;5460783;32;34837;-69
2023/12/23 05:22:36;;;;;;;;;;;;;;;3.00;77.14;98860.53;5448598;32;34849;-73
2023/12/23 05:25:38;;;;;;;;;;;;;;;3.38;76.07;98866.19;5460281;32;34658;-72
2023/12/23 05:28:40;;;;;;;;;;;;;;;3.28;76.43;98888.16;5464066;32;34301;-68
2023/12/23 05:31:43;;;;;;;;;;;;;;;2.98;77.04;98903.87;5459392;32;34479;-73
2023/12/23 05:34:45;;;;;;;;;;;;;;;3.72;74.85;98899.66;5462459;32;34877;-68
2023/12/23 05:37:47;;;;;;;;;;;;;;;3.34;74.71;98927.75;5439438;32;34898;-71
2023/12/23 05:40:50;;;;;;;;;;;;;;;3.37;74.51;98925.09;5457135;32;34605;-72
2023/12/23 05:43:52;;;;;;;;;;;;;;;3.49;73.33;98914.28;5463807;32;34418;-69
2023/12/23 05:46:54;;;;;;;;;;;;;;;3.44;74.34;98915.34;5459163;32;34860;-72
2023/12/23 05:49:57;;;;;;;;;;;;;;;3.36;73.65;98938.12;5442265;32;34826;-69
2023/12/23 05:52:59;;;;;;;;;;;;;;;3.71;73.35;98948.16;5450872;32;35884;-71
2023/12/23 05:56:04;;;;;;;;;;;;;;;3.11;74.48;98944.09;5459356;32;34685;-72
2023/12/23 05:59:07;;;;;;;;;;;;;;;3.24;74.86;98939.38;5461653;32;35056;-70
2023/12/23 06:02:09;;;;;;;;;;;;;;;3.59;73.19;98945.12;5461458;32;35104;-73
2023/12/23 06:05:11;;;;;;;;;;;;;;;3.52;72.32;98973.06;5467038;32;35029;-72
2023/12/23 06:08:13;;;;;;;;;;;;;;;3.57;71.91;98962.53;5447836;32;34670;-68
2023/12/23 06:11:15;;;;;;;;;;;;;;;3.24;72.58;98973.13;5466271;32;34640;-73
2023/12/23 06:14:18;;;;;;;;;;;;;;;3.56;71.62;98972.09;5462190;32;34499;-73
2023/12/23 06:17:20;;;;;;;;;;;;;;;3.57;71.28;98980.72;5448561;32;35588;-71
2023/12/23 06:20:22;;;;;;;;;;;;;;;3.36;72.03;98984.88;5466349;32;34626;-69
2023/12/23 06:23:24;;;;;;;;;;;;;;;3.36;71.71;98974.47;5461312;32;35331;-68
2023/12/23 06:26:26;;;;;;;;;;;;;;;3.32;71.59;98965.09;5466104;32;35458;-68
2023/12/23 06:29:30;;;;;;;;;;;;;;;2.73;74.02;98973.81;5462065;32;34349;-69
2023/12/23 06:32:32;;;;;;;;;;;;;;;2.97;75.11;98960.12;5465686;32;35282;-68
2023/12/23 06:35:34;;;;;;;;;;;;;;;3.16;74.73;98928.38;5462462;32;35438;-72
2023/12/23 06:38:37;;;;;;;;;;;;;;;3.18;73.09;98955.13;5447362;32;35582;-70
2023/12/23 06:41:39;;;;;;;;;;;;;;;3.04;72.89;98985.88;5465551;32;35520;-69
2023/12/23 06:44:41;;;;;;;;;;;;;;;3.25;71.70;98988.66;5462209;32;35036;-74
2023/12/23 06:47:43;;;;;;;;;;;;;;;3.52;71.19;99007.69;5465212;32;34307;-71
2023/12/23 06:50:46;;;;;;;;;;;;;;;3.13;72.99;99011.53;5471430;32;35224;-69
2023/12/23 06:53:48;;;;;;;;;;;;;;;3.23;72.93;99021.62;5442687;32;35238;-71
2023/12/23 06:56:50;;;;;;;;;;;;;;;3.14;73.26;99027.06;5446569;32;34701;-72
2023/12/23 06:59:52;;;;;;;;;;;;;;;2.93;73.91;99033.75;5462200;32;34916;-69
2023/12/23 07:02:55;;;;;;;;;;;;;;;3.13;73.34;99045.28;5466180;32;35389;-70
2023/12/23 07:05:57;;;;;;;;;;;;;;;3.56;71.68;99042.22;5461880;32;34704;-73
2023/12/23 07:08:59;;;;;;;;;;;;;;;3.62;72.33;99042.03;5450295;32;35452;-72
2023/12/23 07:12:02;;;;;;;;;;;;;;;3.23;72.39;99055.37;5445736;32;34792;-72
2023/12/23 07:15:06;;;;;;;;;;;;;;;3.75;71.22;99060.66;5466478;32;34653;-71
2023/12/23 07:18:09;;;;;;;;;;;;;;;3.49;72.21;99056.31;5447015;32;34224;-72
2023/12/23 07:21:12;;;;;;;;;;;;;;;3.40;71.40;99049.63;5446908;32;34300;-70
2023/12/23 07:24:14;;;;;;;;;;;;;;;3.64;70.28;99074.00;5465893;32;34310;-69
2023/12/23 07:27:16;;;;;;;;;;;;;;;3.69;70.61;99084.25;5446188;32;34398;-71
2023/12/23 07:30:18;;;;;;;;;;;;;;;4.04;68.55;99094.34;5466484;32;35086;-69
2023/12/23 07:33:21;;;;;;;;;;;;;;;3.66;69.44;99099.94;5460368;32;34829;-73
2023/12/23 07:36:24;;;;;;;;;;;;;;;3.61;68.62;99110.50;5465115;32;35306;-72
2023/12/23 07:39:26;;;;;;;;;;;;;;;3.93;66.80;99116.37;5441088;32;34892;-73
2023/12/23 07:42:28;;;;;;;;;;;;;;;4.00;67.25;99129.16;5452057;32;35295;-72
2023/12/23 07:45:30;;;;;;;;;;;;;;;4.30;66.24;99127.28;5466278;32;34941;-73
2023/12/23 07:48:32;;;;;;;;;;;;;;;4.47;65.32;99136.28;5459856;32;34736;-72
2023/12/23 07:51:35;;;;;;;;;;;;;;;4.44;64.03;99131.16;5447102;32;34981;-72
2023/12/23 07:54:37;;;;;;;;;;;;;;;4.02;65.73;99149.91;5458648;32;35818;-70
2023/12/23 07:57:39;;;;;;;;;;;;;;;4.28;64.57;99155.09;5464789;32;34987;-68
2023/12/23 08:00:41;;;;;;;;;;;;;;;4.19;63.68;99164.97;5462313;32;34879;-71
2023/12/23 08:03:43;;;;;;;;;;;;;;;4.34;63.84;99165.31;5460768;32;34621;-69
2023/12/23 08:06:45;;;;;;;;;;;;;;;4.06;64.67;99183.56;5465562;32;34048;-71
2023/12/23 08:09:48;;;;;;;;;;;;;;;4.02;64.22;99194.09;5461218;32;34428;-73
2023/12/23 08:12:50;;;;;;;;;;;;;;;4.30;63.41;99204.47;5465652;32;34746;-70
2023/12/23 08:15:52;;;;;;;;;;;;;;;4.37;62.94;99218.97;5461046;32;34351;-70
2023/12/23 08:18:54;;;;;;;;;;;;;;;4.12;63.43;99228.44;5464411;32;35746;-73
2023/12/23 08:21:57;;;;;;;;;;;;;;;3.98;63.34;99221.94;5460787;32;35491;-70
2023/12/23 08:24:59;;;;;;;;;;;;;;;4.19;62.99;99238.63;5453681;32;34854;-71
2023/12/23 08:28:01;;;;;;;;;;;;;;;4.39;62.12;99242.34;5465059;32;34975;-73
2023/12/23 08:31:03;;;;;;;;;;;;;;;4.19;62.58;99256.00;5460467;32;34870;-71
2023/12/23 08:34:05;;;;;;;;;;;;;;;4.57;60.95;99241.72;5464538;32;35276;-70
2023/12/23 08:37:08;;;;;;;;;;;;;;;4.33;61.71;99265.06;5459664;32;34774;-69
2023/12/23 08:40:10;;;;;;;;;;;;;;;4.71;61.03;99249.97;5463745;32;34963;-69
2023/12/23 08:43:12;;;;;;;;;;;;;;;4.39;61.82;99260.56;5447923;32;34216;-72
2023/12/23 08:46:15;;;;;;;;;;;;;;;4.50;62.06;99276.66;5460805;32;35702;-69
2023/12/23 08:49:17;;;;;;;;;;;;;;;4.41;62.01;99263.97;5447848;32;34323;-72
2023/12/23 08:52:20;;;;;;;;;;;;;;;4.66;62.57;99264.03;5457178;32;35579;-70
2023/12/23 08:55:22;;;;;;;;;;;;;;;4.44;63.23;99277.72;5464129;32;35168;-74
2023/12/23 08:58:25;;;;;;;;;;;;;;;4.14;64.19;99271.72;5459584;32;34379;-69
2023/12/23 09:01:27;;;;;;;;;;;;;;;4.43;63.89;99289.03;5447614;32;34720;-71
2023/12/23 09:04:30;;;;;;;;;;;;;;;4.34;63.17;99294.53;5462973;32;34393;-72
2023/12/23 09:07:32;;;;;;;;;;;;;;;4.77;62.83;99283.59;5459886;32;34501;-69
2023/12/23 09:10:36;;;;;;;;;;;;;;;4.95;61.59;99296.88;5443808;32;34156;-72
2023/12/23 09:13:38;;;;;;;;;;;;;;;4.89;61.16;99296.22;5457733;32;34329;-71
2023/12/23 09:16:40;;;;;;;;;;;;;;;4.86;60.79;99311.91;5464312;32;34317;-69
2023/12/23 09:19:43;;;;;;;;;;;;;;;4.97;60.68;99305.53;5459627;32;36924;-69
2023/12/23 09:22:45;;;;;;;;;;;;;;;4.42;61.39;99305.53;5446480;32;35178;-69
2023/12/23 09:25:51;;;;;;;;;;;;;;;4.86;59.75;99301.50;5463462;32;34192;-71
2023/12/23 09:28:54;;;;;;;;;;;;;;;4.62;59.71;99297.09;5459366;32;34825;-70
2023/12/23 09:31:56;;;;;;;;;;;;;;;4.66;59.32;99296.09;5463815;32;34740;-72
2023/12/23 09:34:58;;;;;;;;;;;;;;;4.71;58.65;99311.59;5461887;32;35196;-72
2023/12/23 09:38:04;;;;;;;;;;;;;;;4.62;59.22;99320.50;5466729;32;34949;-71
2023/12/23 09:41:07;;;;;;;;;;;;;;;4.81;59.94;99306.00;5462512;32;35597;-73
2023/12/23 09:44:09;;;;;;;;;;;;;;;4.74;58.72;99275.03;5462338;32;34348;-70
2023/12/23 09:47:11;;;;;;;;;;;;;;;5.09;57.67;99284.28;5466658;32;35117;-72
2023/12/23 09:50:14;;;;;;;;;;;;;;;4.98;58.05;99287.22;5446564;32;34232;-69
2023/12/23 09:53:16;;;;;;;;;;;;;;;5.18;57.60;99275.28;5464510;32;34671;-70
2023/12/23 09:56:18;;;;;;;;;;;;;;;5.03;57.66;99279.28;5446727;32;34138;-71
2023/12/23 09:59:20;;;;;;;;;;;;;;;5.20;57.64;99302.13;5466602;32;35118;-70
2023/12/23 10:02:23;;;;;;;;;;;;;;;5.04;57.56;99307.87;5461957;32;34911;-72
2023/12/23 10:05:31;;;;;;;;;;;;;;;5.25;57.31;99311.47;5461699;32;34284;-71
2023/12/23 10:08:34;;;;;;;;;;;;;;;3.94;59.64;99321.72;5451567;32;34547;-69
2023/12/23 10:11:36;;;;;;;;;;;;;;;4.53;58.80;99321.66;5446919;32;34928;-71
2023/12/23 10:14:41;;;;;;;;;;;;;;;4.74;58.19;99312.31;5466798;32;35053;-73
2023/12/23 10:17:43;;;;;;;;;;;;;;;4.67;57.68;99318.62;5442292;32;35610;-71
2023/12/23 10:20:45;;;;;;;;;;;;;;;4.82;57.30;99319.88;5463431;32;34338;-69
2023/12/23 10:23:48;;;;;;;;;;;;;;;4.30;58.65;99319.75;5461920;32;35439;-70
2023/12/23 10:26:50;;;;;;;;;;;;;;;4.79;58.46;99315.63;5461248;32;34282;-73
2023/12/23 10:29:53;;;;;;;;;;;;;;;5.18;56.34;99317.81;5466550;32;35561;-72
2023/12/23 10:32:55;;;;;;;;;;;;;;;5.04;56.78;99323.50;5446944;32;34809;-72
2023/12/23 10:35:57;;;;;;;;;;;;;;;4.42;58.48;99321.16;5452124;32;34679;-72
2023/12/23 10:39:03;;;;;;;;;;;;;;;4.16;60.08;99321.94;5461431;32;35468;-71
2023/12/23 10:42:05;;;;;;;;;;;;;;;4.55;59.40;99319.88;5449894;32;34875;-71
2023/12/23 10:45:07;;;;;;;;;;;;;;;4.35;58.21;99312.69;5463059;32;34858;-69
2023/12/23 10:48:09;;;;;;;;;;;;;;;4.74;59.02;99324.50;5446734;32;34392;-69
2023/12/23 10:51:12;;;;;;;;;;;;;;;4.64;58.54;99323.94;5476930;32;35075;-70
2023/12/23 10:54:14;;;;;;;;;;;;;;;4.68;58.17;99320.31;5459394;32;35268;-71
2023/12/23 10:57:16;;;;;;;;;;;;;;;4.38;59.24;99309.16;5466230;32;34498;-72
2023/12/23 11:00:18;;;;;;;;;;;;;;;4.41;59.44;99313.41;5461544;32;35396;-70
2023/12/23 11:03:20;;;;;;;;;;;;;;;5.08;57.50;99295.56;5448531;32;34824;-72
2023/12/23 11:06:23;;;;;;;;;;;;;;;4.89;57.08;99283.19;5449438;32;35276;-70
2023/12/23 11:09:25;;;;;;;;;;;;;;;5.05;57.02;99298.28;5440573;32;35370;-74
2023/12/23 11:12:29;;;;;;;;;;;;;;;5.03;55.91;99295.75;5442607;32;34295;-73
2023/12/23 11:15:31;;;;;;;;;;;;;;;5.36;55.12;99278.09;5461346;32;35036;-73
2023/12/23 11:18:33;;;;;;;;;;;;;;;5.40;54.32;99284.03;5465909;32;35379;-73
2023/12/23 11:21:36;;;;;;;;;;;;;;;4.10;57.26;99293.50;5461037;32;35173;-72
2023/12/23 11:24:38;;;;;;;;;;;;;;;4.30;57.17;99288.56;5463176;32;34387;-71
2023/12/23 11:27:40;;;;;;;;;;;;;;;3.82;58.39;99290.88;5464371;32;35296;-69
2023/12/23 11:30:49;;;;;;;;;;;;;;;3.58;60.39;99279.44;5460407;32;34203;-73
2023/12/23 11:33:51;;;;;;;;;;;;;;;4.26;59.16;99283.50;5465614;32;35162;-70
2023/12/23 11:36:53;;;;;;;;;;;;;;;4.71;58.67;99282.94;5433388;32;35743;-71
2023/12/23 11:39:58;;;;;;;;;;;;;;;3.73;61.51;99279.00;5465980;32;34654;-71
2023/12/23 11:43:00;;;;;;;;;;;;;;;3.58;62.37;99263.84;5427378;32;34608;-71
2023/12/23 11:46:02;;;;;;;;;;;;;;;4.18;62.15;99262.06;5453178;32;35151;-72
2023/12/23 11:49:06;;;;;;;;;;;;;;;3.74;64.41;99235.69;5467022;32;35395;-75
2023/12/23 11:52:09;;;;;;;;;;;;;;;3.26;65.83;99251.75;5469405;32;35524;-70
2023/12/23 11:55:11;;;;;;;;;;;;;;;2.57;69.26;99234.53;5464387;32;34877;-72
2023/12/23 11:58:16;;;;;;;;;;;;;;;2.92;70.16;99237.09;5461410;32;35370;-72
2023/12/23 12:01:18;;;;;;;;;;;;;;;3.21;69.59;99246.69;5465644;32;35060;-71
2023/12/23 12:04:21;;;;;;;;;;;;;;;2.96;71.49;99240.44;5461063;32;34605;-74
2023/12/23 12:07:23;;;;;;;;;;;;;;;2.98;72.24;99233.50;5444748;32;35596;-69
2023/12/23 12:10:25;;;;;;;;;;;;;;;2.81;73.09;99226.16;5466117;32;34700;-70
2023/12/23 12:13:28;;;;;;;;;;;;;;;3.58;71.27;99214.50;5441680;32;35429;-71
2023/12/23 12:16:30;;;;;;;;;;;;;;;3.39;71.31;99208.13;5448798;32;34311;-70
2023/12/23 12:19:32;;;;;;;;;;;;;;;2.97;72.38;99200.66;5460802;32;34825;-70
2023/12/23 12:22:34;;;;;;;;;;;;;;;3.35;71.05;99193.50;5464745;32;35461;-70
2023/12/23 12:25:37;;;;;;;;;;;;;;;3.20;70.62;99181.81;5461285;32;34841;-72
2023/12/23 12:28:39;;;;;;;;;;;;;;;3.36;70.70;99183.09;5460184;32;34289;-69
2023/12/23 12:31:41;;;;;;;;;;;;;;;3.06;72.01;99187.41;5450923;32;34944;-71
2023/12/23 12:34:43;;;;;;;;;;;;;;;3.23;71.52;99169.63;5460073;32;35435;-73
2023/12/23 12:37:48;;;;;;;;;;;;;;;3.21;71.82;99171.38;5451355;32;35536;-69
2023/12/23 12:40:51;;;;;;;;;;;;;;;2.79;73.77;99170.00;5460297;32;35815;-69
2023/12/23 12:43:54;;;;;;;;;;;;;;;3.10;72.43;99157.03;5463872;32;34249;-71
2023/12/23 12:46:56;;;;;;;;;;;;;;;3.57;70.65;99155.63;5462044;32;35405;-70
2023/12/23 12:49:59;;;;;;;;;;;;;;;3.73;68.78;99149.06;5458790;32;34301;-70
2023/12/23 12:53:08;;;;;;;;;;;;;;;3.80;69.61;99171.38;5462547;32;35440;-72
2023/12/23 12:56:10;;;;;;;;;;;;;;;4.45;66.87;99182.31;5459920;32;35433;-70
2023/12/23 12:59:13;;;;;;;;;;;;;;;4.62;66.69;99196.44;5464784;32;35065;-70
2023/12/23 13:02:16;;;;;;;;;;;;;;;4.43;66.06;99199.72;5460071;32;35339;-69
2023/12/23 13:05:19;;;;;;;;;;;;;;;4.42;67.59;99218.84;5447526;32;35186;-70
2023/12/23 13:08:21;;;;;;;;;;;;;;;5.03;64.45;99216.78;5463383;32;34846;-72
2023/12/23 13:11:23;;;;;;;;;;;;;;;5.06;64.36;99203.63;5462427;32;35271;-69
2023/12/23 13:14:26;;;;;;;;;;;;;;;4.23;67.29;99209.00;5466946;32;35068;-70
2023/12/23 13:17:28;;;;;;;;;;;;;;;4.85;65.76;99206.09;5462778;32;34745;-70
2023/12/23 13:20:31;;;;;;;;;;;;;;;4.98;65.35;99203.91;5467253;32;35576;-69
2023/12/23 13:23:33;;;;;;;;;;;;;;;4.58;66.69;99207.87;5461791;32;35159;-70
2023/12/23 13:26:35;;;;;;;;;;;;;;;4.03;69.47;99211.41;5435936;32;35738;-71
2023/12/23 13:29:37;;;;;;;;;;;;;;;4.36;68.57;99214.69;5465732;32;34931;-69
2023/12/23 13:32:39;;;;;;;;;;;;;;;4.25;69.25;99216.75;5462206;32;34764;-72
2023/12/23 13:35:42;;;;;;;;;;;;;;;4.59;68.23;99216.53;5467451;32;34436;-72
2023/12/23 13:38:44;;;;;;;;;;;;;;;4.33;69.22;99217.38;5462638;32;34409;-69
2023/12/23 13:41:46;;;;;;;;;;;;;;;4.45;68.25;99206.59;5466636;32;34853;-71
2023/12/23 13:44:49;;;;;;;;;;;;;;;3.52;71.71;99205.12;5462663;32;34668;-74
2023/12/23 13:47:51;;;;;;;;;;;;;;;3.78;71.79;99209.53;5448656;32;34609;-70
2023/12/23 13:50:54;;;;;;;;;;;;;;;4.13;70.76;99209.37;5462890;32;35558;-73
2023/12/23 13:53:57;;;;;;;;;;;;;;;3.75;70.75;99204.44;5460854;32;34579;-74
2023/12/23 13:56:59;;;;;;;;;;;;;;;3.45;72.69;99203.59;5466813;32;35369;-72
2023/12/23 14:00:01;;;;;;;;;;;;;;;3.32;73.36;99204.84;5462143;32;34494;-70
2023/12/23 14:03:04;;;;;;;;;;;;;;;3.14;74.13;99194.97;5466662;32;35434;-69
2023/12/23 14:06:06;;;;;;;;;;;;;;;2.84;75.25;99196.69;5460919;32;34972;-71
2023/12/23 14:09:08;;;;;;;;;;;;;;;2.69;76.81;99197.91;5461865;32;34834;-70
2023/12/23 14:12:11;;;;;;;;;;;;;;;2.83;76.23;99201.00;5448778;32;35449;-71
2023/12/23 14:15:13;;;;;;;;;;;;;;;3.20;75.80;99202.59;5462155;32;34883;-70
2023/12/23 14:18:15;;;;;;;;;;;;;;;3.10;74.83;99198.56;5451805;32;34845;-71
2023/12/23 14:21:17;;;;;;;;;;;;;;;2.97;76.02;99200.66;5444734;32;34234;-70
2023/12/23 14:24:20;;;;;;;;;;;;;;;3.04;76.48;99188.34;5466618;32;35336;-72
2023/12/23 14:27:22;;;;;;;;;;;;;;;3.29;75.28;99188.53;5461417;32;34444;-71
2023/12/23 14:30:24;;;;;;;;;;;;;;;3.50;74.39;99178.34;5447421;32;35033;-69
2023/12/23 14:33:27;;;;;;;;;;;;;;;3.12;74.83;99189.84;5465945;32;34962;-71
2023/12/23 14:36:32;;;;;;;;;;;;;;;3.25;75.09;99196.38;5461597;32;34339;-70
2023/12/23 14:39:34;;;;;;;;;;;;;;;2.89;75.54;99202.56;5466221;32;35849;-69
2023/12/23 14:42:36;;;;;;;;;;;;;;;2.82;76.51;99191.50;5461675;32;35456;-70
2023/12/23 14:45:38;;;;;;;;;;;;;;;3.16;76.14;99194.06;5466276;32;34951;-69
2023/12/23 14:48:40;;;;;;;;;;;;;;;3.32;76.38;99204.00;5442972;32;35517;-70
2023/12/23 14:51:43;;;;;;;;;;;;;;;3.60;73.96;99202.28;5438847;32;34340;-69
2023/12/23 14:54:45;;;;;;;;;;;;;;;3.31;73.50;99200.56;5465176;32;34247;-73
2023/12/23 14:57:47;;;;;;;;;;;;;;;3.46;73.99;99196.66;5461276;32;35476;-72
2023/12/23 15:00:49;;;;;;;;;;;;;;;3.52;74.49;99196.47;5465997;32;36204;-70
2023/12/23 15:03:52;;;;;;;;;;;;;;;3.52;73.56;99193.87;5459654;32;35232;-72
2023/12/23 15:06:54;;;;;;;;;;;;;;;3.10;74.79;99202.03;5465291;32;34558;-70
2023/12/23 15:09:56;;;;;;;;;;;;;;;3.15;75.56;99197.53;5447428;32;35693;-73
2023/12/23 15:13:03;;;;;;;;;;;;;;;2.92;76.33;99207.69;5446484;32;34828;-72
2023/12/23 15:16:07;;;;;;;;;;;;;;;2.92;75.92;99205.09;5465405;32;34546;-71
2023/12/23 15:19:10;;;;;;;;;;;;;;;3.30;76.00;99200.59;5461163;32;34379;-72
2023/12/23 15:22:12;;;;;;;;;;;;;;;3.32;75.04;99209.19;5465376;32;34978;-72
2023/12/23 15:25:16;;;;;;;;;;;;;;;2.70;76.82;99212.59;5461058;32;34699;-72
2023/12/23 15:28:18;;;;;;;;;;;;;;;3.42;75.71;99213.25;5463587;32;34269;-71
2023/12/23 15:31:20;;;;;;;;;;;;;;;3.58;73.86;99205.84;5463334;32;35236;-73
2023/12/23 15:34:22;;;;;;;;;;;;;;;3.49;75.19;99209.56;5440730;32;34307;-71
2023/12/23 15:37:26;;;;;;;;;;;;;;;3.61;73.85;99213.56;5464249;32;35497;-73
2023/12/23 15:40:28;;;;;;;;;;;;;;;3.27;75.79;99214.50;5447198;32;34601;-71
2023/12/23 15:43:30;;;;;;;;;;;;;;;3.89;72.70;99214.44;5451561;32;34393;-74
2023/12/23 15:46:33;;;;;;;;;;;;;;;3.74;73.09;99207.97;5461221;32;34823;-72
2023/12/23 15:49:35;;;;;;;;;;;;;;;3.76;72.69;99200.97;5467644;32;34799;-72
2023/12/23 15:52:37;;;;;;;;;;;;;;;3.45;73.22;99198.41;5447425;32;35038;-73
2023/12/23 15:55:39;;;;;;;;;;;;;;;2.97;75.59;99208.44;5460383;32;34898;-71
2023/12/23 15:58:43;;;;;;;;;;;;;;;3.19;75.32;99213.88;5466731;32;35344;-73
2023/12/23 16:01:45;;;;;;;;;;;;;;;3.03;76.30;99216.06;5461548;32;34741;-70